createdAt,value
2022-08-23T00:01:35.762Z,54.88
2022-08-23T00:04:16.381Z,54.90
2022-08-23T00:06:50.945Z,55.11
2022-08-23T00:09:20.321Z,55.34
2022-08-23T00:11:51.847Z,55.31
2022-08-23T00:14:23.861Z,55.53
2022-08-23T00:16:52.847Z,55.63
2022-08-23T00:19:24.168Z,55.76
2022-08-23T00:21:56.539Z,55.94
2022-08-23T00:24:26.726Z,55.86
2022-08-23T00:26:59.786Z,55.89
2022-08-23T00:29:31.410Z,55.99
2022-08-23T00:32:00.556Z,56.09
2022-08-23T00:34:29.995Z,56.07
2022-08-23T00:37:00.126Z,56.22
2022-08-23T00:39:29.038Z,56.29
2022-08-23T00:42:00.985Z,56.14
2022-08-23T00:44:51.692Z,56.13
2022-08-23T00:47:43.055Z,56.32
2022-08-23T00:50:24.120Z,56.16
2022-08-23T00:53:03.522Z,56.57
2022-08-23T00:55:33.112Z,56.48
2022-08-23T00:58:02.514Z,56.76
2022-08-23T01:00:32.381Z,56.84
2022-08-23T01:03:01.573Z,56.90
2022-08-23T01:05:37.861Z,56.79
2022-08-23T01:08:07.941Z,56.91
2022-08-23T01:11:00.694Z,57.05
2022-08-23T01:13:38.471Z,57.05
2022-08-23T01:16:11.828Z,57.02
2022-08-23T01:18:42.662Z,57.07
2022-08-23T01:21:16.429Z,57.22
2022-08-23T01:23:48.345Z,57.92
2022-08-23T01:26:21.992Z,57.23
2022-08-23T01:28:51.379Z,57.16
2022-08-23T01:31:23.431Z,57.20
2022-08-23T01:33:58.779Z,57.25
2022-08-23T01:36:28.421Z,57.40
2022-08-23T01:38:58.687Z,57.41
2022-08-23T01:41:27.756Z,57.58
2022-08-23T01:43:56.354Z,57.53
2022-08-23T01:46:26.404Z,57.56
2022-08-23T01:48:55.969Z,57.51
2022-08-23T01:51:24.609Z,57.65
2022-08-23T01:53:53.501Z,57.40
2022-08-23T01:56:28.112Z,57.59
2022-08-23T01:59:07.769Z,57.73
2022-08-23T02:01:36.689Z,57.74
2022-08-23T02:04:05.733Z,57.60
2022-08-23T02:06:34.832Z,57.73
2022-08-23T02:09:03.884Z,57.79
2022-08-23T02:11:38.062Z,57.72
2022-08-23T02:14:09.504Z,57.77
2022-08-23T02:16:41.405Z,57.78
2022-08-23T02:19:12.857Z,57.90
2022-08-23T02:21:42.276Z,57.83
2022-08-23T02:24:13.512Z,57.87
2022-08-23T02:26:46.349Z,57.77
2022-08-23T02:29:16.008Z,57.95
2022-08-23T02:31:45.609Z,57.83
2022-08-23T02:34:15.709Z,58.05
2022-08-23T02:36:46.448Z,58.06
2022-08-23T02:39:16.209Z,57.89
2022-08-23T02:41:46.589Z,57.83
2022-08-23T02:44:15.390Z,57.79
2022-08-23T02:46:45.673Z,57.70
2022-08-23T02:49:15.757Z,57.84
2022-08-23T02:51:44.418Z,58.16
2022-08-23T02:54:13.148Z,58.13
2022-08-23T02:56:41.698Z,58.31
2022-08-23T02:59:11.885Z,58.35
2022-08-23T03:01:41.737Z,58.18
2022-08-23T03:04:11.905Z,58.33
2022-08-23T03:06:40.953Z,58.37
2022-08-23T03:09:11.486Z,58.34
2022-08-23T03:11:45.071Z,58.53
2022-08-23T03:14:15.465Z,58.51
2022-08-23T03:16:44.207Z,58.52
2022-08-23T03:19:13.158Z,58.31
2022-08-23T03:21:43.415Z,58.37
2022-08-23T03:24:12.125Z,58.37
2022-08-23T03:26:43.309Z,58.24
2022-08-23T03:29:11.920Z,58.56
2022-08-23T03:31:42.290Z,58.58
2022-08-23T03:34:11.066Z,58.51
2022-08-23T03:36:39.686Z,58.52
2022-08-23T03:39:08.181Z,58.63
2022-08-23T03:41:36.800Z,58.51
2022-08-23T03:44:05.965Z,58.62
2022-08-23T03:46:34.508Z,58.68
2022-08-23T03:49:05.542Z,58.45
2022-08-23T03:51:35.540Z,58.63
2022-08-23T03:54:04.573Z,58.84
2022-08-23T03:56:35.321Z,58.81
2022-08-23T03:59:09.244Z,58.81
2022-08-23T04:01:38.163Z,58.79
2022-08-23T04:04:08.137Z,58.78
2022-08-23T04:06:37.172Z,58.98
2022-08-23T04:09:06.198Z,59.02
2022-08-23T04:11:34.819Z,59.08
2022-08-23T04:14:03.554Z,59.21
2022-08-23T04:16:37.518Z,59.19
2022-08-23T04:19:08.813Z,59.08
2022-08-23T04:21:39.609Z,58.99
2022-08-23T04:24:08.285Z,59.13
2022-08-23T04:26:37.115Z,59.10
2022-08-23T04:29:06.376Z,59.18
2022-08-23T04:31:37.144Z,59.26
2022-08-23T04:34:09.449Z,59.37
2022-08-23T04:36:40.509Z,59.41
2022-08-23T04:39:13.349Z,59.47
2022-08-23T04:41:58.979Z,59.30
2022-08-23T04:44:27.560Z,59.53
2022-08-23T04:46:56.293Z,59.50
2022-08-23T04:49:27.860Z,59.50
2022-08-23T04:51:56.640Z,59.55
2022-08-23T04:54:25.241Z,59.63
2022-08-23T04:56:53.914Z,59.61
2022-08-23T04:59:25.681Z,59.53
2022-08-23T05:01:54.099Z,59.70
2022-08-23T05:04:25.272Z,59.59
2022-08-23T05:06:55.255Z,59.63
2022-08-23T05:09:25.234Z,59.71
2022-08-23T05:11:54.147Z,59.62
2022-08-23T05:14:22.669Z,59.49
2022-08-23T05:16:51.354Z,59.46
2022-08-23T05:19:19.924Z,59.62
2022-08-23T05:21:48.427Z,59.74
2022-08-23T05:24:18.717Z,59.75
2022-08-23T05:26:47.424Z,59.81
2022-08-23T05:29:15.977Z,59.80
2022-08-23T05:31:44.401Z,59.80
2022-08-23T05:34:15.637Z,59.79
2022-08-23T05:36:48.314Z,59.66
2022-08-23T05:39:36.256Z,59.80
2022-08-23T05:42:05.673Z,59.74
2022-08-23T05:44:36.275Z,59.86
2022-08-23T05:47:10.379Z,59.88
2022-08-23T05:49:40.751Z,59.99
2022-08-23T05:52:15.436Z,60.07
2022-08-23T05:54:45.620Z,59.95
2022-08-23T05:57:14.201Z,60.07
2022-08-23T05:59:42.798Z,60.01
2022-08-23T06:02:11.488Z,59.88
2022-08-23T06:04:40.053Z,59.83
2022-08-23T06:07:10.089Z,59.93
2022-08-23T06:09:38.781Z,59.88
2022-08-23T06:12:09.289Z,59.87
2022-08-23T06:14:38.675Z,59.68
2022-08-23T06:17:07.425Z,59.59
2022-08-23T06:19:36.056Z,59.34
2022-08-23T06:22:04.808Z,59.19
2022-08-23T06:24:33.545Z,58.94
2022-08-23T06:27:02.077Z,58.71
2022-08-23T06:29:32.108Z,58.44
2022-08-23T06:32:00.649Z,58.27
2022-08-23T06:34:33.767Z,57.89
2022-08-23T06:37:04.279Z,57.59
2022-08-23T06:39:37.399Z,57.03
2022-08-23T06:42:34.512Z,56.75
2022-08-23T06:44:59.016Z,56.70
2022-08-23T06:47:28.105Z,56.62
2022-08-23T06:49:57.804Z,56.61
2022-08-23T06:52:27.679Z,56.39
2022-08-23T06:54:57.639Z,56.43
2022-08-23T06:57:26.616Z,56.48
2022-08-23T06:59:55.244Z,56.31
2022-08-23T07:02:25.413Z,56.14
2022-08-23T07:04:55.955Z,55.87
2022-08-23T07:07:25.221Z,55.44
2022-08-23T07:10:11.097Z,55.24
2022-08-23T07:12:43.537Z,54.98
2022-08-23T07:15:13.898Z,54.74
2022-08-23T07:17:44.196Z,54.44
2022-08-23T07:20:12.714Z,54.32
2022-08-23T07:22:41.418Z,54.01
2022-08-23T07:25:10.206Z,53.60
2022-08-23T07:27:39.610Z,53.49
2022-08-23T07:30:09.483Z,53.37
2022-08-23T07:32:38.021Z,53.31
2022-08-23T07:35:09.920Z,52.74
2022-08-23T07:37:38.731Z,51.93
2022-08-23T07:40:08.921Z,51.62
2022-08-23T07:42:37.901Z,51.81
2022-08-23T07:45:10.042Z,51.87
2022-08-23T07:47:38.689Z,51.88
2022-08-23T07:50:10.206Z,51.79
2022-08-23T07:52:39.013Z,51.81
2022-08-23T07:55:08.570Z,51.54
2022-08-23T07:57:37.857Z,51.37
2022-08-23T08:00:07.421Z,50.89
2022-08-23T08:02:35.911Z,51.00
2022-08-23T08:05:04.493Z,51.21
2022-08-23T08:07:35.533Z,51.05
2022-08-23T08:10:07.565Z,51.27
2022-08-23T08:12:36.655Z,51.21
2022-08-23T08:15:06.112Z,51.36
2022-08-23T08:17:34.701Z,51.21
2022-08-23T08:20:03.338Z,51.30
2022-08-23T08:22:32.096Z,51.21
2022-08-23T08:25:02.866Z,51.08
2022-08-23T08:27:33.971Z,50.90
2022-08-23T08:30:04.222Z,50.50
2022-08-23T08:32:32.802Z,50.42
2022-08-23T08:35:02.557Z,49.90
2022-08-23T08:37:32.305Z,49.97
2022-08-23T08:40:02.617Z,49.84
2022-08-23T08:42:46.561Z,49.99
2022-08-23T08:45:17.549Z,50.29
2022-08-23T08:47:51.513Z,50.08
2022-08-23T08:50:24.371Z,50.16
2022-08-23T08:52:56.963Z,50.13
2022-08-23T08:55:31.569Z,49.98
2022-08-23T08:58:00.887Z,50.03
2022-08-23T09:00:33.980Z,49.93
2022-08-23T09:03:06.558Z,50.18
2022-08-23T09:05:39.895Z,49.67
2022-08-23T09:08:25.282Z,49.61
2022-08-23T09:11:02.602Z,49.67
2022-08-23T09:14:01.665Z,49.63
2022-08-23T09:16:41.821Z,49.58
2022-08-23T09:19:10.469Z,49.22
2022-08-23T09:21:47.116Z,49.50
2022-08-23T09:24:15.778Z,49.46
2022-08-23T09:26:45.990Z,49.43
2022-08-23T09:29:22.527Z,49.16
2022-08-23T09:31:54.110Z,49.30
2022-08-23T09:34:38.545Z,49.17
2022-08-23T09:37:17.759Z,49.04
2022-08-23T09:39:49.764Z,49.06
2022-08-23T09:42:36.089Z,48.95
2022-08-23T09:45:07.352Z,48.91
2022-08-23T09:47:44.643Z,49.18
2022-08-23T09:50:25.708Z,48.69
2022-08-23T09:53:00.541Z,48.54
2022-08-23T09:55:33.948Z,48.22
2022-08-23T09:58:07.455Z,47.74
2022-08-23T10:00:36.540Z,47.77
2022-08-23T10:03:25.180Z,47.43
2022-08-23T10:05:55.824Z,47.60
2022-08-23T10:08:28.908Z,47.16
2022-08-23T10:11:03.935Z,47.07
2022-08-23T10:13:34.731Z,46.91
2022-08-23T10:16:13.312Z,46.44
2022-08-23T10:18:55.080Z,46.45
2022-08-23T10:21:27.261Z,46.30
2022-08-23T10:24:15.424Z,46.05
2022-08-23T10:26:51.509Z,45.40
2022-08-23T10:29:37.699Z,45.11
2022-08-23T10:32:24.134Z,45.21
2022-08-23T10:35:06.508Z,44.45
2022-08-23T10:37:55.119Z,44.24
2022-08-23T10:40:30.461Z,43.86
2022-08-23T10:43:15.543Z,43.30
2022-08-23T10:45:48.045Z,42.67
2022-08-23T10:48:28.762Z,42.28
2022-08-23T10:51:00.984Z,42.19
2022-08-23T10:53:38.013Z,42.45
2022-08-23T10:56:08.331Z,42.38
2022-08-23T10:58:43.998Z,41.82
2022-08-23T11:01:27.313Z,41.25
2022-08-23T11:04:05.193Z,41.42
2022-08-23T11:06:47.180Z,40.98
2022-08-23T11:09:50.291Z,40.66
2022-08-23T11:12:29.402Z,40.55
2022-08-23T11:15:30.882Z,39.55
2022-08-23T11:18:08.264Z,39.39
2022-08-23T11:21:01.491Z,38.84
2022-08-23T11:23:54.543Z,38.66
2022-08-23T11:27:07.893Z,38.25
2022-08-23T11:29:38.560Z,38.01
2022-08-23T11:32:34.865Z,38.08
2022-08-23T11:35:11.361Z,37.85
2022-08-23T11:37:59.893Z,37.87
2022-08-23T11:41:01.860Z,37.83
2022-08-23T11:43:38.187Z,38.10
2022-08-23T11:46:32.247Z,37.90
2022-08-23T11:49:31.996Z,37.84
2022-08-23T11:52:13.676Z,37.01
2022-08-23T11:55:14.051Z,36.25
2022-08-23T11:58:01.624Z,36.36
2022-08-23T12:00:55.281Z,36.68
2022-08-23T12:03:33.845Z,35.99
2022-08-23T12:06:43.576Z,35.08
2022-08-23T12:09:58.446Z,35.48
2022-08-23T12:12:41.866Z,35.57
2022-08-23T12:15:14.908Z,35.76
2022-08-23T12:18:13.043Z,35.52
2022-08-23T12:20:48.216Z,35.75
2022-08-23T12:23:20.464Z,35.60
2022-08-23T12:26:01.185Z,35.71
2022-08-23T12:28:48.105Z,35.86
2022-08-23T12:31:24.090Z,35.19
2022-08-23T12:34:13.211Z,35.35
2022-08-23T12:36:50.255Z,34.81
2022-08-23T12:39:27.218Z,34.81
2022-08-23T12:42:00.521Z,35.19
2022-08-23T12:44:33.966Z,34.82
2022-08-23T12:47:14.062Z,34.56
2022-08-23T12:49:42.973Z,33.64
2022-08-23T12:52:14.008Z,33.61
2022-08-23T12:54:44.913Z,33.66
2022-08-23T12:57:19.740Z,33.48
2022-08-23T13:00:17.407Z,33.48
2022-08-23T13:02:56.475Z,33.24
2022-08-23T13:05:33.672Z,33.00
2022-08-23T13:08:04.785Z,33.53
2022-08-23T13:10:33.517Z,33.41
2022-08-23T13:13:02.831Z,32.96
2022-08-23T13:15:56.284Z,32.76
2022-08-23T13:18:30.597Z,33.25
2022-08-23T13:21:39.750Z,33.62
2022-08-23T13:24:38.020Z,32.94
2022-08-23T13:27:16.585Z,32.34
2022-08-23T13:29:53.764Z,32.39
2022-08-23T13:32:33.034Z,32.69
2022-08-23T13:35:35.248Z,32.42
2022-08-23T13:38:20.878Z,32.59
2022-08-23T13:40:57.169Z,33.01
2022-08-23T13:43:30.373Z,32.53
2022-08-23T13:46:01.878Z,32.60
2022-08-23T13:48:35.034Z,32.16
2022-08-23T13:51:26.387Z,33.13
2022-08-23T13:53:55.917Z,33.27
2022-08-23T13:56:25.692Z,33.03
2022-08-23T13:58:56.747Z,32.93
2022-08-23T14:01:25.826Z,32.58
2022-08-23T14:03:55.877Z,32.57
2022-08-23T14:06:25.739Z,32.23
2022-08-23T14:08:54.280Z,31.83
2022-08-23T14:11:22.914Z,31.28
2022-08-23T14:13:52.235Z,31.61
2022-08-23T14:16:33.810Z,31.59
2022-08-23T14:21:55.486Z,31.48
2022-08-23T14:24:24.193Z,31.14
2022-08-23T14:26:56.168Z,30.57
2022-08-23T14:29:28.415Z,30.87
2022-08-23T14:31:57.650Z,31.02
2022-08-23T14:34:29.460Z,31.02
2022-08-23T14:39:46.730Z,30.73
2022-08-23T14:42:19.234Z,31.05
2022-08-23T14:44:47.961Z,31.14
2022-08-23T14:47:16.711Z,30.75
2022-08-23T14:49:48.287Z,30.32
2022-08-23T14:52:19.876Z,30.61
2022-08-23T14:54:49.496Z,31.08
2022-08-23T14:57:18.526Z,30.97
2022-08-23T14:59:47.101Z,30.32
2022-08-23T15:02:22.798Z,30.98
2022-08-23T15:04:52.841Z,30.98
2022-08-23T15:07:21.569Z,30.78
2022-08-23T15:09:51.909Z,30.74
2022-08-23T15:15:14.013Z,30.73
2022-08-23T15:17:48.906Z,30.62
2022-08-23T15:20:19.666Z,31.18
2022-08-23T15:22:55.093Z,31.10
2022-08-23T15:25:26.720Z,31.03
2022-08-23T15:27:55.357Z,31.22
2022-08-23T15:30:24.701Z,31.31
2022-08-23T15:32:56.477Z,31.15
2022-08-23T15:35:42.310Z,31.15
2022-08-23T15:38:11.565Z,31.56
2022-08-23T15:40:40.333Z,31.50
2022-08-23T15:43:09.125Z,31.97
2022-08-23T15:45:38.440Z,31.78
2022-08-23T15:48:16.248Z,31.53
2022-08-23T15:50:47.962Z,31.29
2022-08-23T15:53:16.992Z,31.05
2022-08-23T15:55:46.754Z,30.93
2022-08-23T15:58:17.841Z,31.26
2022-08-23T16:00:47.372Z,31.36
2022-08-23T16:03:20.275Z,31.22
2022-08-23T16:05:53.868Z,31.23
2022-08-23T16:08:26.401Z,31.82
2022-08-23T16:10:54.993Z,31.81
2022-08-23T16:13:24.789Z,31.81
2022-08-23T16:15:53.971Z,32.52
2022-08-23T16:18:22.457Z,32.31
2022-08-23T16:20:54.472Z,32.78
2022-08-23T16:23:23.876Z,32.50
2022-08-23T16:25:55.885Z,32.60
2022-08-23T16:28:27.693Z,33.14
2022-08-23T16:30:56.276Z,33.04
2022-08-23T16:33:24.777Z,33.31
2022-08-23T16:35:55.073Z,33.68
2022-08-23T16:38:23.581Z,33.87
2022-08-23T16:40:52.037Z,33.98
2022-08-23T16:43:20.623Z,33.66
2022-08-23T16:45:49.235Z,33.82
2022-08-23T16:48:17.861Z,34.40
2022-08-23T16:50:46.597Z,34.27
2022-08-23T16:53:17.038Z,34.52
2022-08-23T16:55:45.898Z,35.37
2022-08-23T16:58:14.621Z,35.91
2022-08-23T17:00:43.705Z,36.09
2022-08-23T17:03:12.476Z,36.36
2022-08-23T17:05:41.330Z,36.97
2022-08-23T17:08:09.781Z,37.40
2022-08-23T17:10:40.201Z,37.64
2022-08-23T17:13:09.857Z,38.03
2022-08-23T17:15:38.661Z,38.13
2022-08-23T17:18:07.838Z,38.27
2022-08-23T17:20:38.551Z,38.50
2022-08-23T17:23:07.786Z,38.66
2022-08-23T17:25:36.889Z,38.74
2022-08-23T17:28:07.517Z,38.94
2022-08-23T17:30:36.382Z,39.28
2022-08-23T17:33:04.954Z,39.53
2022-08-23T17:35:34.396Z,39.75
2022-08-23T17:38:03.610Z,40.10
2022-08-23T17:40:34.356Z,40.31
2022-08-23T17:43:03.763Z,40.37
2022-08-23T17:45:42.033Z,40.65
2022-08-23T17:48:11.122Z,40.77
2022-08-23T17:50:43.796Z,41.10
2022-08-23T17:53:12.625Z,41.19
2022-08-23T17:55:41.729Z,41.33
2022-08-23T17:58:12.032Z,41.52
2022-08-23T18:00:42.089Z,41.85
2022-08-23T18:03:10.695Z,41.79
2022-08-23T18:05:43.061Z,42.20
2022-08-23T18:08:11.740Z,42.37
2022-08-23T18:10:41.041Z,42.45
2022-08-23T18:13:10.109Z,42.72
2022-08-23T18:15:38.768Z,42.83
2022-08-23T18:18:08.884Z,42.80
2022-08-23T18:20:38.182Z,42.96
2022-08-23T18:23:07.063Z,43.30
2022-08-23T18:25:36.965Z,43.48
2022-08-23T18:28:08.742Z,43.78
2022-08-23T18:30:40.597Z,44.00
2022-08-23T18:33:12.634Z,44.01
2022-08-23T18:35:41.743Z,44.15
2022-08-23T18:38:12.610Z,44.38
2022-08-23T18:40:46.530Z,44.72
2022-08-23T18:43:18.214Z,44.82
2022-08-23T18:45:48.265Z,45.03
2022-08-23T18:48:19.788Z,45.03
2022-08-23T18:50:49.103Z,45.27
2022-08-23T18:53:18.546Z,45.66
2022-08-23T18:55:47.453Z,46.12
2022-08-23T18:58:16.330Z,46.18
2022-08-23T19:00:46.157Z,46.41
2022-08-23T19:03:19.321Z,46.59
2022-08-23T19:05:48.404Z,46.60
2022-08-23T19:08:17.263Z,46.91
2022-08-23T19:10:46.469Z,47.11
2022-08-23T19:13:15.474Z,47.09
2022-08-23T19:15:44.066Z,47.33
2022-08-23T19:18:12.591Z,47.44
2022-08-23T19:20:42.526Z,47.50
2022-08-23T19:23:11.636Z,47.63
2022-08-23T19:25:41.225Z,47.84
2022-08-23T19:28:09.816Z,47.93
2022-08-23T19:30:39.256Z,47.99
2022-08-23T19:33:10.633Z,48.43
2022-08-23T19:35:39.996Z,48.39
2022-08-23T19:38:10.270Z,48.42
2022-08-23T19:40:38.818Z,48.45
2022-08-23T19:43:07.433Z,48.73
2022-08-23T19:45:35.987Z,49.05
2022-08-23T19:48:05.425Z,48.98
2022-08-23T19:50:34.409Z,49.31
2022-08-23T19:53:03.519Z,49.17
2022-08-23T19:55:34.278Z,49.30
2022-08-23T19:58:02.757Z,49.55
2022-08-23T20:00:31.816Z,49.77
2022-08-23T20:03:00.561Z,49.72
2022-08-23T20:05:29.066Z,49.65
2022-08-23T20:07:57.602Z,49.91
2022-08-23T20:10:26.533Z,49.89
2022-08-23T20:12:57.052Z,49.76
2022-08-23T20:15:25.501Z,49.84
2022-08-23T20:17:54.928Z,50.05
2022-08-23T20:20:24.037Z,50.25
2022-08-23T20:23:09.673Z,50.49
2022-08-23T20:25:38.159Z,50.33
2022-08-23T20:28:08.504Z,50.61
2022-08-23T20:30:37.708Z,50.41
2022-08-23T20:33:06.430Z,50.59
2022-08-23T20:35:34.839Z,50.58
2022-08-23T20:38:04.773Z,50.89
2022-08-23T20:40:33.309Z,51.24
2022-08-23T20:43:02.380Z,51.05
2022-08-23T20:45:32.958Z,51.23
2022-08-23T20:48:02.033Z,51.30
2022-08-23T20:50:31.494Z,51.26
2022-08-23T20:53:00.186Z,51.61
2022-08-23T20:55:28.876Z,51.40
2022-08-23T20:57:57.285Z,51.42
2022-08-23T21:00:26.160Z,51.47
2022-08-23T21:02:56.448Z,51.58
2022-08-23T21:05:24.830Z,51.94
2022-08-23T21:07:53.558Z,51.89
2022-08-23T21:10:22.205Z,52.09
2022-08-23T21:12:50.689Z,52.18
2022-08-23T21:15:19.722Z,52.18
2022-08-23T21:17:48.470Z,52.24
2022-08-23T21:20:19.160Z,52.18
2022-08-23T21:22:47.680Z,52.40
2022-08-23T21:25:16.897Z,52.57
2022-08-23T21:27:45.802Z,52.75
2022-08-23T21:30:15.776Z,52.81
2022-08-23T21:32:44.213Z,52.95
2022-08-23T21:35:14.041Z,53.12
2022-08-23T21:37:44.381Z,53.24
2022-08-23T21:40:14.177Z,53.38
2022-08-23T21:42:42.860Z,53.52
2022-08-23T21:45:11.821Z,53.75
2022-08-23T21:47:40.751Z,53.80
2022-08-23T21:50:09.799Z,53.89
2022-08-23T21:52:38.265Z,53.85
2022-08-23T21:55:09.704Z,54.28
2022-08-23T21:57:38.170Z,54.01
2022-08-23T22:00:09.730Z,54.32
2022-08-23T22:02:38.574Z,54.50
2022-08-23T22:05:08.317Z,54.48
2022-08-23T22:07:37.040Z,54.33
2022-08-23T22:10:11.105Z,54.74
2022-08-23T22:12:40.473Z,54.86
2022-08-23T22:15:10.203Z,54.82
2022-08-23T22:17:38.791Z,55.02
2022-08-23T22:20:09.632Z,55.18
2022-08-23T22:22:38.624Z,55.18
2022-08-23T22:25:10.158Z,55.28
2022-08-23T22:27:38.961Z,55.44
2022-08-23T22:30:08.673Z,55.64
2022-08-23T22:32:37.294Z,55.55
2022-08-23T22:35:07.113Z,55.76
2022-08-23T22:37:37.305Z,55.83
2022-08-23T22:40:10.296Z,55.77
2022-08-23T22:42:39.042Z,55.86
2022-08-23T22:45:10.594Z,55.94
2022-08-23T22:47:39.224Z,55.83
2022-08-23T22:50:08.490Z,56.04
2022-08-23T22:52:36.973Z,56.37
2022-08-23T22:55:06.147Z,56.45
2022-08-23T22:57:38.067Z,56.37
2022-08-23T23:00:10.904Z,56.42
2022-08-23T23:02:39.957Z,56.84
2022-08-23T23:05:09.738Z,56.40
2022-08-23T23:07:55.861Z,56.48
2022-08-23T23:10:24.464Z,56.81
2022-08-23T23:12:54.333Z,56.95
2022-08-23T23:15:22.771Z,56.73
2022-08-23T23:17:51.346Z,56.96
2022-08-23T23:20:39.191Z,57.03
2022-08-23T23:23:08.216Z,56.92
2022-08-23T23:25:37.671Z,57.20
2022-08-23T23:28:07.824Z,57.19
2022-08-23T23:30:37.844Z,57.39
2022-08-23T23:33:06.880Z,57.29
2022-08-23T23:35:35.592Z,57.37
2022-08-23T23:38:05.347Z,57.39
2022-08-23T23:40:35.086Z,57.62
2022-08-23T23:43:04.013Z,57.55
2022-08-23T23:45:33.922Z,57.47
2022-08-23T23:48:02.689Z,57.57
2022-08-23T23:50:32.472Z,57.64
2022-08-23T23:53:00.986Z,57.71
2022-08-23T23:55:29.437Z,57.56
2022-08-23T23:57:58.767Z,57.49
